sensor_id;sensor_type;location;lat;lon;timestamp;P1;durP1;ratioP1;P2;durP2;ratioP2
55037;SDS011;40937;53.594;10.034;2024-01-15T00:02:01;5.15;;;2.20;;
55037;SDS011;40937;53.594;10.034;2024-01-15T00:04:29;11.00;;;2.42;;
55037;SDS011;40937;53.594;10.034;2024-01-15T00:06:56;10.93;;;2.22;;
55037;SDS011;40937;53.594;10.034;2024-01-15T00:09:23;6.05;;;2.00;;
55037;SDS011;40937;53.594;10.034;2024-01-15T00:11:50;5.78;;;2.10;;
55037;SDS011;40937;53.594;10.034;2024-01-15T00:14:17;11.82;;;2.50;;
55037;SDS011;40937;53.594;10.034;2024-01-15T00:16:45;9.15;;;2.45;;
55037;SDS011;40937;53.594;10.034;2024-01-15T00:19:16;17.08;;;2.42;;
55037;SDS011;40937;53.594;10.034;2024-01-15T00:21:43;12.07;;;2.63;;
55037;SDS011;40937;53.594;10.034;2024-01-15T00:24:10;9.82;;;2.50;;
55037;SDS011;40937;53.594;10.034;2024-01-15T00:26:38;10.60;;;2.35;;
55037;SDS011;40937;53.594;10.034;2024-01-15T00:29:06;10.82;;;2.28;;
55037;SDS011;40937;53.594;10.034;2024-01-15T00:31:33;8.27;;;1.88;;
55037;SDS011;40937;53.594;10.034;2024-01-15T00:34:01;9.63;;;2.35;;
55037;SDS011;40937;53.594;10.034;2024-01-15T00:36:29;11.35;;;2.05;;
55037;SDS011;40937;53.594;10.034;2024-01-15T00:38:56;11.20;;;2.17;;
55037;SDS011;40937;53.594;10.034;2024-01-15T00:41:23;8.98;;;2.90;;
55037;SDS011;40937;53.594;10.034;2024-01-15T00:43:50;11.40;;;3.13;;
55037;SDS011;40937;53.594;10.034;2024-01-15T00:46:17;9.65;;;2.60;;
55037;SDS011;40937;53.594;10.034;2024-01-15T00:48:45;13.98;;;2.53;;
55037;SDS011;40937;53.594;10.034;2024-01-15T00:51:12;10.48;;;2.53;;
55037;SDS011;40937;53.594;10.034;2024-01-15T00:53:41;7.72;;;2.22;;
55037;SDS011;40937;53.594;10.034;2024-01-15T00:56:08;18.23;;;2.90;;
55037;SDS011;40937;53.594;10.034;2024-01-15T00:58:35;8.20;;;2.63;;
55037;SDS011;40937;53.594;10.034;2024-01-15T01:01:02;9.27;;;2.97;;
55037;SDS011;40937;53.594;10.034;2024-01-15T01:03:30;13.38;;;2.90;;
55037;SDS011;40937;53.594;10.034;2024-01-15T01:05:57;8.80;;;2.67;;
55037;SDS011;40937;53.594;10.034;2024-01-15T01:08:24;12.93;;;2.60;;
55037;SDS011;40937;53.594;10.034;2024-01-15T01:10:53;13.57;;;3.33;;
55037;SDS011;40937;53.594;10.034;2024-01-15T01:13:22;14.98;;;2.90;;
55037;SDS011;40937;53.594;10.034;2024-01-15T01:15:49;6.18;;;2.72;;
55037;SDS011;40937;53.594;10.034;2024-01-15T01:18:16;8.38;;;2.60;;
55037;SDS011;40937;53.594;10.034;2024-01-15T01:20:43;13.68;;;2.88;;
55037;SDS011;40937;53.594;10.034;2024-01-15T01:23:11;10.88;;;2.47;;
55037;SDS011;40937;53.594;10.034;2024-01-15T01:25:38;12.68;;;2.90;;
55037;SDS011;40937;53.594;10.034;2024-01-15T01:28:06;11.68;;;2.60;;
55037;SDS011;40937;53.594;10.034;2024-01-15T01:30:33;8.27;;;2.25;;
55037;SDS011;40937;53.594;10.034;2024-01-15T01:33:01;11.38;;;3.25;;
55037;SDS011;40937;53.594;10.034;2024-01-15T01:35:28;10.23;;;2.80;;
55037;SDS011;40937;53.594;10.034;2024-01-15T01:37:55;10.80;;;2.83;;
55037;SDS011;40937;53.594;10.034;2024-01-15T01:40:22;12.15;;;2.75;;
55037;SDS011;40937;53.594;10.034;2024-01-15T01:42:49;10.60;;;2.50;;
55037;SDS011;40937;53.594;10.034;2024-01-15T01:45:18;11.63;;;2.80;;
55037;SDS011;40937;53.594;10.034;2024-01-15T01:47:45;13.32;;;2.78;;
55037;SDS011;40937;53.594;10.034;2024-01-15T01:50:12;8.90;;;2.30;;
55037;SDS011;40937;53.594;10.034;2024-01-15T01:52:41;10.15;;;2.63;;
55037;SDS011;40937;53.594;10.034;2024-01-15T01:55:08;17.10;;;3.05;;
55037;SDS011;40937;53.594;10.034;2024-01-15T01:57:37;12.00;;;2.83;;
55037;SDS011;40937;53.594;10.034;2024-01-15T02:00:05;14.48;;;2.78;;
55037;SDS011;40937;53.594;10.034;2024-01-15T02:02:40;14.35;;;2.55;;
55037;SDS011;40937;53.594;10.034;2024-01-15T02:05:07;12.70;;;3.10;;
55037;SDS011;40937;53.594;10.034;2024-01-15T02:07:36;10.70;;;2.50;;
55037;SDS011;40937;53.594;10.034;2024-01-15T02:10:03;8.13;;;2.40;;
55037;SDS011;40937;53.594;10.034;2024-01-15T02:12:32;11.38;;;2.83;;
55037;SDS011;40937;53.594;10.034;2024-01-15T02:14:59;11.77;;;2.35;;
55037;SDS011;40937;53.594;10.034;2024-01-15T02:17:26;13.48;;;3.28;;
55037;SDS011;40937;53.594;10.034;2024-01-15T02:19:55;12.25;;;2.65;;
55037;SDS011;40937;53.594;10.034;2024-01-15T02:22:22;9.27;;;2.78;;
55037;SDS011;40937;53.594;10.034;2024-01-15T02:24:50;10.63;;;2.72;;
55037;SDS011;40937;53.594;10.034;2024-01-15T02:27:17;10.82;;;2.10;;
55037;SDS011;40937;53.594;10.034;2024-01-15T02:29:47;10.55;;;2.85;;
55037;SDS011;40937;53.594;10.034;2024-01-15T02:32:14;11.55;;;2.72;;
55037;SDS011;40937;53.594;10.034;2024-01-15T02:34:42;9.15;;;2.25;;
55037;SDS011;40937;53.594;10.034;2024-01-15T02:37:09;9.23;;;2.47;;
55037;SDS011;40937;53.594;10.034;2024-01-15T02:39:36;15.65;;;3.33;;
55037;SDS011;40937;53.594;10.034;2024-01-15T02:42:05;12.02;;;3.88;;
55037;SDS011;40937;53.594;10.034;2024-01-15T02:44:32;13.48;;;2.70;;
55037;SDS011;40937;53.594;10.034;2024-01-15T02:46:59;7.50;;;2.17;;
55037;SDS011;40937;53.594;10.034;2024-01-15T02:49:26;8.48;;;2.35;;
55037;SDS011;40937;53.594;10.034;2024-01-15T02:51:54;8.05;;;2.60;;
55037;SDS011;40937;53.594;10.034;2024-01-15T02:54:21;12.45;;;3.08;;
55037;SDS011;40937;53.594;10.034;2024-01-15T02:56:48;12.35;;;2.85;;
55037;SDS011;40937;53.594;10.034;2024-01-15T02:59:16;10.02;;;3.63;;
55037;SDS011;40937;53.594;10.034;2024-01-15T03:01:43;13.68;;;3.40;;
55037;SDS011;40937;53.594;10.034;2024-01-15T03:04:11;11.98;;;3.13;;
55037;SDS011;40937;53.594;10.034;2024-01-15T03:06:38;11.07;;;3.17;;
55037;SDS011;40937;53.594;10.034;2024-01-15T03:09:05;16.33;;;3.70;;
55037;SDS011;40937;53.594;10.034;2024-01-15T03:11:36;11.93;;;2.70;;
55037;SDS011;40937;53.594;10.034;2024-01-15T03:14:04;10.20;;;2.63;;
55037;SDS011;40937;53.594;10.034;2024-01-15T03:16:32;22.38;;;3.15;;
55037;SDS011;40937;53.594;10.034;2024-01-15T03:18:59;14.30;;;3.75;;
55037;SDS011;40937;53.594;10.034;2024-01-15T03:21:27;9.07;;;2.85;;
55037;SDS011;40937;53.594;10.034;2024-01-15T03:23:55;12.60;;;3.60;;
55037;SDS011;40937;53.594;10.034;2024-01-15T03:26:22;19.40;;;3.42;;
55037;SDS011;40937;53.594;10.034;2024-01-15T03:28:49;12.38;;;3.10;;
55037;SDS011;40937;53.594;10.034;2024-01-15T03:31:17;10.70;;;2.78;;
55037;SDS011;40937;53.594;10.034;2024-01-15T03:33:45;10.43;;;2.60;;
55037;SDS011;40937;53.594;10.034;2024-01-15T03:36:13;14.73;;;3.45;;
55037;SDS011;40937;53.594;10.034;2024-01-15T03:38:40;10.98;;;3.72;;
55037;SDS011;40937;53.594;10.034;2024-01-15T03:41:08;12.45;;;2.88;;
55037;SDS011;40937;53.594;10.034;2024-01-15T03:43:35;12.30;;;3.00;;
55037;SDS011;40937;53.594;10.034;2024-01-15T03:46:02;11.82;;;2.92;;
55037;SDS011;40937;53.594;10.034;2024-01-15T03:48:30;14.88;;;3.28;;
55037;SDS011;40937;53.594;10.034;2024-01-15T03:50:58;11.02;;;3.15;;
55037;SDS011;40937;53.594;10.034;2024-01-15T03:53:26;17.50;;;3.53;;
55037;SDS011;40937;53.594;10.034;2024-01-15T03:55:53;16.70;;;3.88;;
55037;SDS011;40937;53.594;10.034;2024-01-15T03:58:20;11.48;;;3.15;;
55037;SDS011;40937;53.594;10.034;2024-01-15T04:00:47;13.70;;;3.58;;
55037;SDS011;40937;53.594;10.034;2024-01-15T04:03:15;14.40;;;3.30;;
55037;SDS011;40937;53.594;10.034;2024-01-15T04:05:42;14.40;;;3.38;;
55037;SDS011;40937;53.594;10.034;2024-01-15T04:08:11;26.88;;;4.22;;
55037;SDS011;40937;53.594;10.034;2024-01-15T04:10:38;12.63;;;3.45;;
55037;SDS011;40937;53.594;10.034;2024-01-15T04:13:05;9.85;;;3.35;;
55037;SDS011;40937;53.594;10.034;2024-01-15T04:15:33;13.93;;;3.55;;
55037;SDS011;40937;53.594;10.034;2024-01-15T04:18:00;14.80;;;3.60;;
55037;SDS011;40937;53.594;10.034;2024-01-15T04:20:28;18.27;;;3.92;;
55037;SDS011;40937;53.594;10.034;2024-01-15T04:22:56;18.55;;;3.80;;
55037;SDS011;40937;53.594;10.034;2024-01-15T04:25:24;19.88;;;2.85;;
55037;SDS011;40937;53.594;10.034;2024-01-15T04:27:51;25.67;;;2.97;;
55037;SDS011;40937;53.594;10.034;2024-01-15T04:30:19;11.02;;;3.60;;
55037;SDS011;40937;53.594;10.034;2024-01-15T04:32:46;19.33;;;3.63;;
55037;SDS011;40937;53.594;10.034;2024-01-15T04:35:13;11.30;;;2.70;;
55037;SDS011;40937;53.594;10.034;2024-01-15T04:37:40;20.75;;;4.35;;
55037;SDS011;40937;53.594;10.034;2024-01-15T04:40:08;15.60;;;3.25;;
55037;SDS011;40937;53.594;10.034;2024-01-15T04:42:37;17.98;;;3.88;;
55037;SDS011;40937;53.594;10.034;2024-01-15T04:45:05;23.63;;;3.45;;
55037;SDS011;40937;53.594;10.034;2024-01-15T04:47:32;22.10;;;4.18;;
55037;SDS011;40937;53.594;10.034;2024-01-15T04:49:59;31.15;;;4.43;;
55037;SDS011;40937;53.594;10.034;2024-01-15T04:52:26;20.67;;;4.22;;
55037;SDS011;40937;53.594;10.034;2024-01-15T04:54:53;18.02;;;4.20;;
55037;SDS011;40937;53.594;10.034;2024-01-15T04:57:21;18.35;;;4.55;;
55037;SDS011;40937;53.594;10.034;2024-01-15T04:59:49;17.20;;;4.97;;
55037;SDS011;40937;53.594;10.034;2024-01-15T05:02:16;17.27;;;4.07;;
55037;SDS011;40937;53.594;10.034;2024-01-15T05:04:43;10.88;;;3.55;;
55037;SDS011;40937;53.594;10.034;2024-01-15T05:07:11;21.33;;;5.05;;
55037;SDS011;40937;53.594;10.034;2024-01-15T05:09:38;29.35;;;4.50;;
55037;SDS011;40937;53.594;10.034;2024-01-15T05:12:05;15.52;;;4.78;;
55037;SDS011;40937;53.594;10.034;2024-01-15T05:14:33;22.20;;;4.60;;
55037;SDS011;40937;53.594;10.034;2024-01-15T05:17:02;26.00;;;4.72;;
55037;SDS011;40937;53.594;10.034;2024-01-15T05:19:29;31.77;;;5.50;;
55037;SDS011;40937;53.594;10.034;2024-01-15T05:21:56;33.60;;;5.45;;
55037;SDS011;40937;53.594;10.034;2024-01-15T05:24:23;21.38;;;4.65;;
55037;SDS011;40937;53.594;10.034;2024-01-15T05:26:52;25.85;;;5.35;;
55037;SDS011;40937;53.594;10.034;2024-01-15T05:29:19;16.25;;;4.40;;
55037;SDS011;40937;53.594;10.034;2024-01-15T05:31:46;28.55;;;5.50;;
55037;SDS011;40937;53.594;10.034;2024-01-15T05:34:15;17.73;;;4.93;;
55037;SDS011;40937;53.594;10.034;2024-01-15T05:36:42;19.08;;;3.78;;
55037;SDS011;40937;53.594;10.034;2024-01-15T05:39:09;20.02;;;4.63;;
55037;SDS011;40937;53.594;10.034;2024-01-15T05:41:36;23.25;;;4.80;;
55037;SDS011;40937;53.594;10.034;2024-01-15T05:44:03;21.15;;;5.07;;
55037;SDS011;40937;53.594;10.034;2024-01-15T05:46:31;26.08;;;4.07;;
55037;SDS011;40937;53.594;10.034;2024-01-15T05:48:58;11.77;;;3.40;;
55037;SDS011;40937;53.594;10.034;2024-01-15T05:51:26;22.20;;;4.38;;
55037;SDS011;40937;53.594;10.034;2024-01-15T05:53:53;17.80;;;4.57;;
55037;SDS011;40937;53.594;10.034;2024-01-15T05:56:20;14.88;;;3.65;;
55037;SDS011;40937;53.594;10.034;2024-01-15T05:58:49;22.90;;;4.78;;
55037;SDS011;40937;53.594;10.034;2024-01-15T06:01:17;14.57;;;3.45;;
55037;SDS011;40937;53.594;10.034;2024-01-15T06:03:44;22.15;;;4.00;;
55037;SDS011;40937;53.594;10.034;2024-01-15T06:06:11;20.30;;;5.18;;
55037;SDS011;40937;53.594;10.034;2024-01-15T06:08:40;18.83;;;4.28;;
55037;SDS011;40937;53.594;10.034;2024-01-15T06:11:07;18.98;;;4.80;;
55037;SDS011;40937;53.594;10.034;2024-01-15T06:13:34;13.93;;;3.63;;
55037;SDS011;40937;53.594;10.034;2024-01-15T06:16:01;16.35;;;3.97;;
55037;SDS011;40937;53.594;10.034;2024-01-15T06:18:28;15.15;;;3.38;;
55037;SDS011;40937;53.594;10.034;2024-01-15T06:20:56;21.13;;;3.58;;
55037;SDS011;40937;53.594;10.034;2024-01-15T06:23:23;26.00;;;4.20;;
55037;SDS011;40937;53.594;10.034;2024-01-15T06:25:51;18.13;;;4.13;;
55037;SDS011;40937;53.594;10.034;2024-01-15T06:28:18;25.55;;;5.78;;
55037;SDS011;40937;53.594;10.034;2024-01-15T06:30:46;17.13;;;3.80;;
55037;SDS011;40937;53.594;10.034;2024-01-15T06:33:13;21.85;;;4.38;;
55037;SDS011;40937;53.594;10.034;2024-01-15T06:35:41;20.88;;;4.85;;
55037;SDS011;40937;53.594;10.034;2024-01-15T06:38:08;21.77;;;4.68;;
55037;SDS011;40937;53.594;10.034;2024-01-15T06:40:35;24.15;;;5.80;;
55037;SDS011;40937;53.594;10.034;2024-01-15T06:43:04;21.17;;;4.32;;
55037;SDS011;40937;53.594;10.034;2024-01-15T06:45:32;20.55;;;4.40;;
55037;SDS011;40937;53.594;10.034;2024-01-15T06:48:00;12.63;;;3.95;;
55037;SDS011;40937;53.594;10.034;2024-01-15T06:50:27;18.00;;;3.95;;
55037;SDS011;40937;53.594;10.034;2024-01-15T06:52:54;18.00;;;4.47;;
55037;SDS011;40937;53.594;10.034;2024-01-15T06:55:21;24.48;;;4.25;;
55037;SDS011;40937;53.594;10.034;2024-01-15T06:57:49;20.88;;;6.00;;
55037;SDS011;40937;53.594;10.034;2024-01-15T07:00:18;15.98;;;5.15;;
55037;SDS011;40937;53.594;10.034;2024-01-15T07:02:45;21.20;;;4.28;;
55037;SDS011;40937;53.594;10.034;2024-01-15T07:05:13;21.08;;;4.45;;
55037;SDS011;40937;53.594;10.034;2024-01-15T07:07:40;16.20;;;4.55;;
55037;SDS011;40937;53.594;10.034;2024-01-15T07:10:08;15.35;;;3.38;;
55037;SDS011;40937;53.594;10.034;2024-01-15T07:12:36;16.90;;;3.70;;
55037;SDS011;40937;53.594;10.034;2024-01-15T07:15:03;18.38;;;4.57;;
55037;SDS011;40937;53.594;10.034;2024-01-15T07:17:34;18.40;;;3.45;;
55037;SDS011;40937;53.594;10.034;2024-01-15T07:20:01;16.48;;;3.33;;
55037;SDS011;40937;53.594;10.034;2024-01-15T07:22:29;21.90;;;5.80;;
55037;SDS011;40937;53.594;10.034;2024-01-15T07:24:56;17.70;;;4.75;;
55037;SDS011;40937;53.594;10.034;2024-01-15T07:27:23;16.80;;;3.58;;
55037;SDS011;40937;53.594;10.034;2024-01-15T07:29:51;12.20;;;3.63;;
55037;SDS011;40937;53.594;10.034;2024-01-15T07:32:18;19.15;;;2.70;;
55037;SDS011;40937;53.594;10.034;2024-01-15T07:34:47;11.35;;;2.88;;
55037;SDS011;40937;53.594;10.034;2024-01-15T07:37:15;16.40;;;3.15;;
55037;SDS011;40937;53.594;10.034;2024-01-15T07:39:42;13.00;;;2.97;;
55037;SDS011;40937;53.594;10.034;2024-01-15T07:42:09;18.98;;;3.05;;
55037;SDS011;40937;53.594;10.034;2024-01-15T07:44:37;10.93;;;2.95;;
55037;SDS011;40937;53.594;10.034;2024-01-15T07:47:04;11.57;;;3.75;;
55037;SDS011;40937;53.594;10.034;2024-01-15T07:49:32;8.50;;;2.70;;
55037;SDS011;40937;53.594;10.034;2024-01-15T07:52:00;13.15;;;3.10;;
55037;SDS011;40937;53.594;10.034;2024-01-15T07:54:28;8.50;;;2.45;;
55037;SDS011;40937;53.594;10.034;2024-01-15T07:56:55;9.10;;;2.42;;
55037;SDS011;40937;53.594;10.034;2024-01-15T07:59:23;11.30;;;2.63;;
55037;SDS011;40937;53.594;10.034;2024-01-15T08:01:51;13.35;;;2.90;;
55037;SDS011;40937;53.594;10.034;2024-01-15T08:04:18;9.65;;;2.95;;
55037;SDS011;40937;53.594;10.034;2024-01-15T08:06:45;10.48;;;2.67;;
55037;SDS011;40937;53.594;10.034;2024-01-15T08:09:14;14.20;;;2.40;;
55037;SDS011;40937;53.594;10.034;2024-01-15T08:11:41;17.23;;;3.20;;
55037;SDS011;40937;53.594;10.034;2024-01-15T08:14:09;11.30;;;2.22;;
55037;SDS011;40937;53.594;10.034;2024-01-15T08:16:37;14.00;;;2.60;;
55037;SDS011;40937;53.594;10.034;2024-01-15T08:19:04;17.40;;;3.38;;
55037;SDS011;40937;53.594;10.034;2024-01-15T08:21:32;15.65;;;2.65;;
55037;SDS011;40937;53.594;10.034;2024-01-15T08:24:00;10.88;;;2.58;;
55037;SDS011;40937;53.594;10.034;2024-01-15T08:26:30;13.57;;;3.72;;
55037;SDS011;40937;53.594;10.034;2024-01-15T08:28:57;10.65;;;2.92;;
55037;SDS011;40937;53.594;10.034;2024-01-15T08:31:25;11.63;;;2.45;;
55037;SDS011;40937;53.594;10.034;2024-01-15T08:33:53;14.07;;;3.00;;
55037;SDS011;40937;53.594;10.034;2024-01-15T08:36:21;10.68;;;2.30;;
55037;SDS011;40937;53.594;10.034;2024-01-15T08:38:48;14.07;;;3.05;;
55037;SDS011;40937;53.594;10.034;2024-01-15T08:41:15;7.18;;;2.50;;
55037;SDS011;40937;53.594;10.034;2024-01-15T08:43:44;8.38;;;3.03;;
55037;SDS011;40937;53.594;10.034;2024-01-15T08:46:11;7.85;;;2.58;;
55037;SDS011;40937;53.594;10.034;2024-01-15T08:48:38;14.68;;;2.50;;
55037;SDS011;40937;53.594;10.034;2024-01-15T08:51:06;15.77;;;2.63;;
55037;SDS011;40937;53.594;10.034;2024-01-15T08:53:33;11.85;;;2.75;;
55037;SDS011;40937;53.594;10.034;2024-01-15T08:56:00;11.88;;;2.42;;
55037;SDS011;40937;53.594;10.034;2024-01-15T08:58:28;12.88;;;2.63;;
55037;SDS011;40937;53.594;10.034;2024-01-15T09:00:56;11.82;;;2.78;;
55037;SDS011;40937;53.594;10.034;2024-01-15T09:03:24;7.13;;;2.35;;
55037;SDS011;40937;53.594;10.034;2024-01-15T09:05:51;16.75;;;3.45;;
55037;SDS011;40937;53.594;10.034;2024-01-15T09:08:18;7.47;;;2.25;;
55037;SDS011;40937;53.594;10.034;2024-01-15T09:10:46;18.17;;;2.47;;
55037;SDS011;40937;53.594;10.034;2024-01-15T09:13:13;7.75;;;3.15;;
55037;SDS011;40937;53.594;10.034;2024-01-15T09:15:40;6.78;;;1.90;;
55037;SDS011;40937;53.594;10.034;2024-01-15T09:18:09;7.90;;;2.30;;
55037;SDS011;40937;53.594;10.034;2024-01-15T09:20:36;13.98;;;2.53;;
55037;SDS011;40937;53.594;10.034;2024-01-15T09:23:04;14.07;;;3.00;;
55037;SDS011;40937;53.594;10.034;2024-01-15T09:25:31;7.93;;;2.20;;
55037;SDS011;40937;53.594;10.034;2024-01-15T09:27:58;13.10;;;2.45;;
55037;SDS011;40937;53.594;10.034;2024-01-15T09:30:25;9.25;;;2.60;;
55037;SDS011;40937;53.594;10.034;2024-01-15T09:32:52;9.82;;;2.78;;
55037;SDS011;40937;53.594;10.034;2024-01-15T09:35:21;12.63;;;2.85;;
55037;SDS011;40937;53.594;10.034;2024-01-15T09:37:48;19.52;;;2.78;;
55037;SDS011;40937;53.594;10.034;2024-01-15T09:40:15;7.97;;;2.63;;
55037;SDS011;40937;53.594;10.034;2024-01-15T09:42:43;14.00;;;2.40;;
55037;SDS011;40937;53.594;10.034;2024-01-15T09:45:12;11.40;;;2.75;;
55037;SDS011;40937;53.594;10.034;2024-01-15T09:47:40;11.07;;;2.80;;
55037;SDS011;40937;53.594;10.034;2024-01-15T09:50:09;7.38;;;2.00;;
55037;SDS011;40937;53.594;10.034;2024-01-15T09:52:37;6.05;;;1.55;;
55037;SDS011;40937;53.594;10.034;2024-01-15T09:55:06;7.40;;;1.83;;
55037;SDS011;40937;53.594;10.034;2024-01-15T09:57:36;6.75;;;2.33;;
55037;SDS011;40937;53.594;10.034;2024-01-15T10:00:08;7.65;;;2.20;;
55037;SDS011;40937;53.594;10.034;2024-01-15T10:02:37;8.80;;;2.58;;
55037;SDS011;40937;53.594;10.034;2024-01-15T10:05:04;15.48;;;3.60;;
55037;SDS011;40937;53.594;10.034;2024-01-15T10:07:32;11.30;;;3.83;;
55037;SDS011;40937;53.594;10.034;2024-01-15T10:10:03;15.68;;;3.38;;
55037;SDS011;40937;53.594;10.034;2024-01-15T10:12:31;17.67;;;2.90;;
55037;SDS011;40937;53.594;10.034;2024-01-15T10:14:59;11.27;;;2.70;;
55037;SDS011;40937;53.594;10.034;2024-01-15T10:17:28;16.67;;;2.80;;
55037;SDS011;40937;53.594;10.034;2024-01-15T10:19:56;12.57;;;2.83;;
55037;SDS011;40937;53.594;10.034;2024-01-15T10:22:24;11.25;;;2.78;;
55037;SDS011;40937;53.594;10.034;2024-01-15T10:24:51;13.48;;;2.47;;
55037;SDS011;40937;53.594;10.034;2024-01-15T10:27:19;9.68;;;2.30;;
55037;SDS011;40937;53.594;10.034;2024-01-15T10:29:47;9.15;;;2.13;;
55037;SDS011;40937;53.594;10.034;2024-01-15T10:32:14;6.25;;;2.47;;
55037;SDS011;40937;53.594;10.034;2024-01-15T10:34:41;6.25;;;2.00;;
55037;SDS011;40937;53.594;10.034;2024-01-15T10:37:08;6.07;;;1.67;;
55037;SDS011;40937;53.594;10.034;2024-01-15T10:39:36;11.57;;;2.13;;
55037;SDS011;40937;53.594;10.034;2024-01-15T10:42:04;7.45;;;1.38;;
55037;SDS011;40937;53.594;10.034;2024-01-15T10:44:33;10.38;;;1.65;;
55037;SDS011;40937;53.594;10.034;2024-01-15T10:47:00;4.30;;;1.35;;
55037;SDS011;40937;53.594;10.034;2024-01-15T10:49:27;3.95;;;1.45;;
55037;SDS011;40937;53.594;10.034;2024-01-15T10:51:58;6.00;;;1.58;;
55037;SDS011;40937;53.594;10.034;2024-01-15T10:54:25;5.15;;;1.73;;
55037;SDS011;40937;53.594;10.034;2024-01-15T10:56:54;3.63;;;1.85;;
55037;SDS011;40937;53.594;10.034;2024-01-15T10:59:22;4.30;;;1.65;;
55037;SDS011;40937;53.594;10.034;2024-01-15T11:01:51;9.52;;;2.28;;
55037;SDS011;40937;53.594;10.034;2024-01-15T11:04:20;2.35;;;1.30;;
55037;SDS011;40937;53.594;10.034;2024-01-15T11:06:49;18.73;;;15.48;;
55037;SDS011;40937;53.594;10.034;2024-01-15T11:09:19;8.85;;;2.33;;
55037;SDS011;40937;53.594;10.034;2024-01-15T11:11:46;4.97;;;1.58;;
55037;SDS011;40937;53.594;10.034;2024-01-15T11:14:33;3.08;;;1.30;;
55037;SDS011;40937;53.594;10.034;2024-01-15T11:17:02;8.10;;;1.52;;
55037;SDS011;40937;53.594;10.034;2024-01-15T11:19:37;6.20;;;1.38;;
55037;SDS011;40937;53.594;10.034;2024-01-15T11:22:07;4.97;;;1.50;;
55037;SDS011;40937;53.594;10.034;2024-01-15T11:24:35;6.97;;;1.10;;
55037;SDS011;40937;53.594;10.034;2024-01-15T11:27:03;3.88;;;1.40;;
55037;SDS011;40937;53.594;10.034;2024-01-15T11:29:32;3.75;;;1.55;;
55037;SDS011;40937;53.594;10.034;2024-01-15T11:32:02;7.30;;;1.63;;
55037;SDS011;40937;53.594;10.034;2024-01-15T11:34:50;4.30;;;1.40;;
55037;SDS011;40937;53.594;10.034;2024-01-15T11:37:17;3.17;;;1.40;;
55037;SDS011;40937;53.594;10.034;2024-01-15T11:39:45;2.85;;;1.63;;
55037;SDS011;40937;53.594;10.034;2024-01-15T11:42:13;5.43;;;1.80;;
55037;SDS011;40937;53.594;10.034;2024-01-15T11:44:41;3.35;;;1.67;;
55037;SDS011;40937;53.594;10.034;2024-01-15T11:47:10;4.35;;;1.45;;
55037;SDS011;40937;53.594;10.034;2024-01-15T11:52:31;5.95;;;1.83;;
55037;SDS011;40937;53.594;10.034;2024-01-15T11:55:06;5.13;;;1.50;;
55037;SDS011;40937;53.594;10.034;2024-01-15T11:57:42;6.15;;;1.75;;
55037;SDS011;40937;53.594;10.034;2024-01-15T12:00:12;5.72;;;2.20;;
55037;SDS011;40937;53.594;10.034;2024-01-15T12:02:42;6.95;;;2.20;;
55037;SDS011;40937;53.594;10.034;2024-01-15T12:05:11;6.03;;;1.65;;
55037;SDS011;40937;53.594;10.034;2024-01-15T12:07:39;4.05;;;1.60;;
55037;SDS011;40937;53.594;10.034;2024-01-15T12:10:09;5.57;;;2.50;;
55037;SDS011;40937;53.594;10.034;2024-01-15T12:12:39;3.83;;;1.75;;
55037;SDS011;40937;53.594;10.034;2024-01-15T12:15:28;3.97;;;1.73;;
55037;SDS011;40937;53.594;10.034;2024-01-15T12:17:58;8.77;;;2.42;;
55037;SDS011;40937;53.594;10.034;2024-01-15T12:20:28;5.57;;;1.85;;
55037;SDS011;40937;53.594;10.034;2024-01-15T12:22:55;6.95;;;1.92;;
55037;SDS011;40937;53.594;10.034;2024-01-15T12:25:23;7.53;;;1.83;;
55037;SDS011;40937;53.594;10.034;2024-01-15T12:27:52;7.18;;;1.77;;
55037;SDS011;40937;53.594;10.034;2024-01-15T12:30:20;9.07;;;2.20;;
55037;SDS011;40937;53.594;10.034;2024-01-15T12:32:47;5.97;;;1.35;;
55037;SDS011;40937;53.594;10.034;2024-01-15T12:35:16;4.40;;;1.75;;
55037;SDS011;40937;53.594;10.034;2024-01-15T12:37:43;4.45;;;1.58;;
55037;SDS011;40937;53.594;10.034;2024-01-15T12:40:12;6.65;;;1.77;;
55037;SDS011;40937;53.594;10.034;2024-01-15T12:42:40;4.57;;;1.42;;
55037;SDS011;40937;53.594;10.034;2024-01-15T12:45:08;8.10;;;1.80;;
55037;SDS011;40937;53.594;10.034;2024-01-15T12:47:36;2.67;;;1.70;;
55037;SDS011;40937;53.594;10.034;2024-01-15T12:50:06;4.05;;;1.50;;
55037;SDS011;40937;53.594;10.034;2024-01-15T12:52:34;5.47;;;1.60;;
55037;SDS011;40937;53.594;10.034;2024-01-15T12:55:04;4.05;;;2.05;;
55037;SDS011;40937;53.594;10.034;2024-01-15T12:57:31;5.57;;;1.70;;
55037;SDS011;40937;53.594;10.034;2024-01-15T12:59:59;3.70;;;1.40;;
55037;SDS011;40937;53.594;10.034;2024-01-15T13:02:27;2.72;;;1.10;;
55037;SDS011;40937;53.594;10.034;2024-01-15T13:04:54;3.63;;;1.58;;
55037;SDS011;40937;53.594;10.034;2024-01-15T13:07:22;8.57;;;1.40;;
55037;SDS011;40937;53.594;10.034;2024-01-15T13:09:50;1.52;;;1.38;;
55037;SDS011;40937;53.594;10.034;2024-01-15T13:12:19;4.38;;;1.55;;
55037;SDS011;40937;53.594;10.034;2024-01-15T13:14:46;3.42;;;1.52;;
55037;SDS011;40937;53.594;10.034;2024-01-15T13:17:14;2.40;;;1.25;;
55037;SDS011;40937;53.594;10.034;2024-01-15T13:19:41;2.20;;;1.30;;
55037;SDS011;40937;53.594;10.034;2024-01-15T13:22:08;6.32;;;1.50;;
55037;SDS011;40937;53.594;10.034;2024-01-15T13:24:35;1.55;;;1.10;;
55037;SDS011;40937;53.594;10.034;2024-01-15T13:27:04;4.00;;;1.42;;
55037;SDS011;40937;53.594;10.034;2024-01-15T13:29:32;4.88;;;1.75;;
55037;SDS011;40937;53.594;10.034;2024-01-15T13:31:59;3.92;;;1.42;;
55037;SDS011;40937;53.594;10.034;2024-01-15T13:34:27;3.40;;;1.70;;
55037;SDS011;40937;53.594;10.034;2024-01-15T13:36:54;2.60;;;1.25;;
55037;SDS011;40937;53.594;10.034;2024-01-15T13:39:21;3.40;;;1.40;;
55037;SDS011;40937;53.594;10.034;2024-01-15T13:41:49;2.17;;;1.45;;
55037;SDS011;40937;53.594;10.034;2024-01-15T13:44:17;4.57;;;1.75;;
55037;SDS011;40937;53.594;10.034;2024-01-15T13:46:45;5.47;;;1.33;;
55037;SDS011;40937;53.594;10.034;2024-01-15T13:49:12;3.53;;;1.40;;
55037;SDS011;40937;53.594;10.034;2024-01-15T13:51:40;2.13;;;1.40;;
55037;SDS011;40937;53.594;10.034;2024-01-15T13:54:07;4.03;;;1.80;;
55037;SDS011;40937;53.594;10.034;2024-01-15T13:56:34;2.38;;;1.63;;
55037;SDS011;40937;53.594;10.034;2024-01-15T13:59:01;8.27;;;1.75;;
55037;SDS011;40937;53.594;10.034;2024-01-15T14:01:31;3.67;;;1.40;;
55037;SDS011;40937;53.594;10.034;2024-01-15T14:03:58;2.90;;;1.73;;
55037;SDS011;40937;53.594;10.034;2024-01-15T14:06:26;2.10;;;1.67;;
55037;SDS011;40937;53.594;10.034;2024-01-15T14:08:54;5.18;;;1.35;;
55037;SDS011;40937;53.594;10.034;2024-01-15T14:11:21;4.90;;;1.58;;
55037;SDS011;40937;53.594;10.034;2024-01-15T14:13:48;4.03;;;1.60;;
55037;SDS011;40937;53.594;10.034;2024-01-15T14:16:15;6.38;;;1.50;;
55037;SDS011;40937;53.594;10.034;2024-01-15T14:18:44;4.78;;;1.58;;
55037;SDS011;40937;53.594;10.034;2024-01-15T14:21:11;1.83;;;1.65;;
55037;SDS011;40937;53.594;10.034;2024-01-15T14:23:38;3.78;;;1.67;;
55037;SDS011;40937;53.594;10.034;2024-01-15T14:26:05;1.83;;;1.60;;
55037;SDS011;40937;53.594;10.034;2024-01-15T14:28:33;8.05;;;1.80;;
55037;SDS011;40937;53.594;10.034;2024-01-15T14:31:00;3.83;;;1.60;;
55037;SDS011;40937;53.594;10.034;2024-01-15T14:33:27;2.58;;;1.25;;